Terminal Aerodrome Forecast
Issued by NWS

Home | Current Version | Previous Version | Text Only | Print | Product List | Glossary On
Versions: 1 2 3 4 5 6 7 8 9 10 11 12 13 14 15 16 17
000
FTUS44 KLIX 221743
TAFMSY
TAF
KMSY 221743Z 2218/2318 18021G29KT P6SM VCTS FEW025CB BKN035 BKN100
     FM222100 19020G28KT 5SM -SHRA VCTS SCT030CB BKN040
     FM230200 18017G25KT P6SM -SHRA VCTS BKN030CB
     FM231100 18015G22KT P6SM -SHRA VCTS BKN020CB=

USA.gov is the U.S. government's official web portal to all federal, state and local government web resources and services.